Time;durP1;ratioP1;P1;durP2;ratioP2;P2;SDS_P1;SDS_P2;PMS_P1;PMS_P2;Temp;Humidity;BMP_temperature;BMP_pressure;BME280_temperature;BME280_humidity;BME280_pressure;Samples;Min_cycle;Max_cycle;Signal;HPM_P1;HPM_P2
2023/12/13 00:02:06;;;;;;;11.20;2.20;;;10.40;99.90;;;;;;5073330;28;20173;-71
2023/12/13 00:04:32;;;;;;;10.77;2.30;;;10.40;99.90;;;;;;5072813;28;20655;-71
2023/12/13 00:06:58;;;;;;;9.23;2.37;;;10.30;99.90;;;;;;5073191;28;20280;-71
2023/12/13 00:09:23;;;;;;;12.47;2.50;;;10.40;99.90;;;;;;5072892;28;20676;-71
2023/12/13 00:11:49;;;;;;;11.47;2.73;;;10.40;99.90;;;;;;5073081;28;20172;-71
2023/12/13 00:14:15;;;;;;;9.87;2.10;;;10.30;99.90;;;;;;5073327;28;20193;-71
2023/12/13 00:16:40;;;;;;;12.90;2.30;;;10.40;99.90;;;;;;5073131;28;20620;-71
2023/12/13 00:19:06;;;;;;;7.03;2.30;;;10.40;99.90;;;;;;5072873;28;20226;-71
2023/12/13 00:21:32;;;;;;;10.73;2.60;;;10.50;99.90;;;;;;5072909;28;20263;-71
2023/12/13 00:23:58;;;;;;;10.30;2.80;;;10.60;99.90;;;;;;5073010;28;20237;-71
2023/12/13 00:26:23;;;;;;;8.67;2.23;;;10.50;99.90;;;;;;5073016;28;20207;-71
2023/12/13 00:28:50;;;;;;;13.10;2.80;;;10.60;99.90;;;;;;5072824;28;20228;-71
2023/12/13 00:31:15;;;;;;;11.77;2.33;;;10.60;99.90;;;;;;5073050;28;20225;-71
2023/12/13 00:33:42;;;;;;;9.30;2.53;;;10.60;99.90;;;;;;5072657;28;20243;-71
2023/12/13 00:36:08;;;;;;;9.40;2.57;;;10.60;99.90;;;;;;5071486;28;20214;-72
2023/12/13 00:38:33;;;;;;;10.30;2.47;;;10.60;99.90;;;;;;5073084;28;20223;-71
2023/12/13 00:40:59;;;;;;;12.00;3.03;;;10.50;99.90;;;;;;5072867;28;20173;-71
2023/12/13 00:43:25;;;;;;;10.50;3.10;;;10.50;99.90;;;;;;5073014;28;20191;-71
2023/12/13 00:45:50;;;;;;;11.27;3.03;;;10.50;99.90;;;;;;5072984;28;20316;-71
2023/12/13 00:48:16;;;;;;;8.77;2.30;;;10.60;99.90;;;;;;5072650;28;20647;-71
2023/12/13 00:50:42;;;;;;;9.73;2.67;;;10.60;99.90;;;;;;5072604;28;20207;-71
2023/12/13 00:53:07;;;;;;;13.00;2.70;;;10.60;99.90;;;;;;5072913;28;20173;-71
2023/12/13 00:55:33;;;;;;;13.20;3.00;;;10.70;99.90;;;;;;5072692;28;20268;-71
2023/12/13 00:57:59;;;;;;;16.83;2.80;;;10.70;99.90;;;;;;5072714;28;20165;-71
2023/12/13 01:00:24;;;;;;;14.93;3.03;;;10.70;99.90;;;;;;5072659;28;20172;-71
2023/12/13 01:02:50;;;;;;;12.23;2.90;;;10.80;99.90;;;;;;5072406;28;20169;-71
2023/12/13 01:05:16;;;;;;;11.93;3.27;;;10.70;99.90;;;;;;5072574;28;20177;-71
2023/12/13 01:07:42;;;;;;;10.77;2.60;;;10.70;99.90;;;;;;5074561;28;20180;-71
2023/12/13 01:10:07;;;;;;;12.40;3.10;;;10.70;99.90;;;;;;5076432;28;20212;-71
2023/12/13 01:12:33;;;;;;;10.93;2.97;;;10.70;99.90;;;;;;5076543;28;20244;-71
2023/12/13 01:14:59;;;;;;;8.83;2.60;;;10.70;99.90;;;;;;5076389;28;20184;-71
2023/12/13 01:17:24;;;;;;;8.97;2.47;;;10.70;99.90;;;;;;5076056;28;20671;-71
2023/12/13 01:19:52;;;;;;;11.67;3.33;;;10.60;99.90;;;;;;5076122;28;20176;-71
2023/12/13 01:22:18;;;;;;;15.27;3.27;;;10.60;99.90;;;;;;5076378;28;20172;-71
2023/12/13 01:24:43;;;;;;;8.27;2.97;;;10.60;99.90;;;;;;5076254;28;20199;-71
2023/12/13 01:27:09;;;;;;;10.90;3.30;;;10.60;99.90;;;;;;5075752;28;20616;-71
2023/12/13 01:29:34;;;;;;;12.03;3.23;;;10.50;99.90;;;;;;5076273;28;20212;-71
2023/12/13 01:32:00;;;;;;;11.80;3.60;;;10.60;99.90;;;;;;5075766;28;20226;-71
2023/12/13 01:34:25;;;;;;;12.63;2.77;;;10.70;99.90;;;;;;5075898;28;20176;-71
2023/12/13 01:36:51;;;;;;;11.27;3.10;;;10.60;99.90;;;;;;5076055;28;20180;-71
2023/12/13 01:39:16;;;;;;;10.07;3.50;;;10.50;99.90;;;;;;5075684;28;20168;-71
2023/12/13 01:41:43;;;;;;;6.70;2.50;;;10.50;99.90;;;;;;5075910;28;20175;-71
2023/12/13 01:44:10;;;;;;;11.63;3.33;;;10.50;99.90;;;;;;5075794;28;20230;-71
2023/12/13 01:46:36;;;;;;;18.20;3.23;;;10.50;99.90;;;;;;5075549;28;20230;-71
2023/12/13 01:49:05;;;;;;;12.07;3.23;;;10.50;99.90;;;;;;5075613;28;20201;-71
2023/12/13 01:51:32;;;;;;;11.33;3.33;;;10.50;99.90;;;;;;5075491;28;20173;-71
2023/12/13 01:53:57;;;;;;;12.17;3.30;;;10.40;99.90;;;;;;5075532;28;20742;-71
2023/12/13 01:56:23;;;;;;;12.33;3.03;;;10.50;99.90;;;;;;5075502;28;20260;-71
2023/12/13 01:58:49;;;;;;;12.73;3.67;;;10.50;99.90;;;;;;5075571;28;20181;-71
2023/12/13 02:01:15;;;;;;;12.17;3.00;;;10.50;99.90;;;;;;5075079;28;20168;-71
2023/12/13 02:03:41;;;;;;;12.53;2.77;;;10.50;99.90;;;;;;5075403;28;20165;-71
2023/12/13 02:06:06;;;;;;;15.33;3.67;;;10.50;99.90;;;;;;5075555;28;20172;-71
2023/12/13 02:08:33;;;;;;;17.50;2.97;;;10.50;99.90;;;;;;5075447;28;20229;-71
2023/12/13 02:10:59;;;;;;;11.33;2.97;;;10.50;99.90;;;;;;5073951;28;20273;-71
2023/12/13 02:13:25;;;;;;;11.00;2.90;;;10.50;99.90;;;;;;5075308;28;20169;-71
2023/12/13 02:15:51;;;;;;;12.43;3.40;;;10.50;99.90;;;;;;5074993;28;20183;-71
2023/12/13 02:18:17;;;;;;;12.83;3.63;;;10.50;99.90;;;;;;5074915;28;20255;-71
2023/12/13 02:20:43;;;;;;;15.40;3.20;;;10.40;99.90;;;;;;5075084;28;20596;-71
2023/12/13 02:23:08;;;;;;;11.70;3.40;;;10.40;99.90;;;;;;5075255;28;20183;-71
2023/12/13 02:25:42;;;;;;;12.10;2.70;;;10.40;99.90;;;;;;5075260;28;20568;-71
2023/12/13 02:28:09;;;;;;;12.33;2.90;;;10.40;99.90;;;;;;5074733;28;20243;-71
2023/12/13 02:30:34;;;;;;;12.80;3.47;;;10.40;99.90;;;;;;5074480;28;20216;-71
2023/12/13 02:33:00;;;;;;;11.97;3.00;;;10.40;99.90;;;;;;5074795;28;20233;-71
2023/12/13 02:35:26;;;;;;;12.83;3.10;;;10.40;99.90;;;;;;5075073;28;20204;-71
2023/12/13 02:37:52;;;;;;;10.27;3.30;;;10.40;99.90;;;;;;5074838;28;20176;-71
2023/12/13 02:40:18;;;;;;;11.63;2.83;;;10.30;99.90;;;;;;5074727;28;20212;-71
2023/12/13 02:42:45;;;;;;;14.77;3.17;;;10.40;99.90;;;;;;5074690;28;20168;-71
2023/12/13 02:45:12;;;;;;;10.70;2.67;;;10.50;99.90;;;;;;5072925;28;20177;-71
2023/12/13 02:47:41;;;;;;;10.77;3.00;;;10.50;99.90;;;;;;5074831;28;20180;-71
2023/12/13 02:50:16;;;;;;;13.27;3.27;;;10.50;99.90;;;;;;5074499;28;20671;-71
2023/12/13 02:52:42;;;;;;;10.03;3.27;;;10.40;99.90;;;;;;5074647;28;20184;-71
2023/12/13 02:55:11;;;;;;;12.33;3.03;;;10.40;99.90;;;;;;5074561;28;20180;-72
2023/12/13 02:57:37;;;;;;;13.07;3.17;;;10.40;99.90;;;;;;5074287;28;20177;-72
2023/12/13 03:00:04;;;;;;;9.23;2.50;;;10.50;99.90;;;;;;5074122;28;20165;-71
2023/12/13 03:02:30;;;;;;;15.10;3.17;;;10.50;99.90;;;;;;5074367;28;20173;-71
2023/12/13 03:04:55;;;;;;;10.77;2.77;;;10.50;99.90;;;;;;5074356;28;20175;-71
2023/12/13 03:07:21;;;;;;;8.83;2.50;;;10.40;99.90;;;;;;5072942;28;20173;-72
2023/12/13 03:09:47;;;;;;;9.37;2.50;;;10.40;99.90;;;;;;5074190;28;20215;-71
2023/12/13 03:12:13;;;;;;;11.87;2.50;;;10.40;99.90;;;;;;5074217;28;20251;-71
2023/12/13 03:14:38;;;;;;;11.90;2.70;;;10.50;99.90;;;;;;5073706;28;20188;-71
2023/12/13 03:17:04;;;;;;;12.53;2.70;;;10.60;99.90;;;;;;5074187;28;20172;-72
2023/12/13 03:19:29;;;;;;;9.40;2.50;;;10.50;99.90;;;;;;5074157;28;20522;-71
2023/12/13 03:21:55;;;;;;;7.43;2.70;;;10.50;99.90;;;;;;5073945;28;20311;-71
2023/12/13 03:24:21;;;;;;;10.53;2.77;;;10.50;99.90;;;;;;5074005;28;20168;-71
2023/12/13 03:26:46;;;;;;;14.90;2.77;;;10.40;99.90;;;;;;5073918;28;20195;-71
2023/12/13 03:29:12;;;;;;;14.07;3.07;;;10.40;99.90;;;;;;5072667;28;20740;-71
2023/12/13 03:31:38;;;;;;;12.77;3.07;;;10.40;99.90;;;;;;5073581;28;20174;-71
2023/12/13 03:34:03;;;;;;;12.37;2.87;;;10.40;99.90;;;;;;5073919;28;20169;-71
2023/12/13 03:36:29;;;;;;;13.77;2.80;;;10.30;99.90;;;;;;5073562;28;20172;-71
2023/12/13 03:38:54;;;;;;;13.53;3.03;;;10.30;99.90;;;;;;5073555;28;20168;-71
2023/12/13 03:41:20;;;;;;;7.60;2.60;;;10.30;99.90;;;;;;5073174;28;20225;-71
2023/12/13 03:43:45;;;;;;;13.77;2.67;;;10.30;99.90;;;;;;5073188;28;20660;-72
2023/12/13 03:46:11;;;;;;;12.53;2.97;;;10.30;99.90;;;;;;5073684;28;20241;-71
2023/12/13 03:48:37;;;;;;;11.33;3.10;;;10.30;99.90;;;;;;5073694;28;20241;-71
2023/12/13 03:51:04;;;;;;;11.73;3.43;;;10.30;99.90;;;;;;5073413;28;20234;-71
2023/12/13 03:53:30;;;;;;;11.80;3.00;;;10.30;99.90;;;;;;5073371;28;20171;-71
2023/12/13 03:55:56;;;;;;;14.60;3.00;;;10.40;99.90;;;;;;5073279;28;20183;-71
2023/12/13 03:58:22;;;;;;;15.47;3.20;;;10.40;99.90;;;;;;5073160;28;20173;-71
2023/12/13 04:00:47;;;;;;;10.80;2.97;;;10.30;99.90;;;;;;5073294;28;20235;-71
2023/12/13 04:03:13;;;;;;;15.70;3.23;;;10.30;99.90;;;;;;5073286;28;20674;-72
2023/12/13 04:05:38;;;;;;;12.50;3.00;;;10.30;99.90;;;;;;5073450;28;20197;-71
2023/12/13 04:08:04;;;;;;;19.40;3.67;;;10.20;99.90;;;;;;5073349;28;20172;-71
2023/12/13 04:10:29;;;;;;;13.30;3.23;;;10.10;99.90;;;;;;5073530;28;20211;-71
2023/12/13 04:12:55;;;;;;;14.10;3.10;;;10.10;99.90;;;;;;5072874;28;20165;-71
2023/12/13 04:15:21;;;;;;;10.57;3.00;;;10.10;99.90;;;;;;5072929;28;20672;-71
2023/12/13 04:17:46;;;;;;;13.40;3.10;;;10.10;99.90;;;;;;5072930;28;20235;-71
2023/12/13 04:20:12;;;;;;;12.00;3.10;;;10.20;99.90;;;;;;5072698;28;20216;-70
2023/12/13 04:22:37;;;;;;;11.27;3.10;;;10.20;99.90;;;;;;5073100;28;20667;-70
2023/12/13 04:25:03;;;;;;;13.83;3.50;;;10.20;99.90;;;;;;5072843;28;20636;-71
2023/12/13 04:27:29;;;;;;;11.30;3.10;;;10.20;99.90;;;;;;5072130;28;20212;-70
2023/12/13 04:29:55;;;;;;;15.63;3.73;;;10.20;99.90;;;;;;5072658;28;20270;-71
2023/12/13 04:32:20;;;;;;;15.67;3.07;;;10.20;99.90;;;;;;5072756;28;20175;-70
2023/12/13 04:34:46;;;;;;;14.50;3.43;;;10.20;99.90;;;;;;5072867;28;20176;-70
2023/12/13 04:37:11;;;;;;;12.43;3.17;;;10.10;99.90;;;;;;5072960;28;20635;-71
2023/12/13 04:39:37;;;;;;;9.63;2.77;;;10.20;99.90;;;;;;5071159;28;20172;-71
2023/12/13 04:42:03;;;;;;;15.00;2.90;;;10.20;99.90;;;;;;5074972;28;20165;-70
2023/12/13 04:44:30;;;;;;;13.73;3.23;;;10.20;99.90;;;;;;5076744;28;20195;-70
2023/12/13 04:46:59;;;;;;;10.53;3.10;;;10.10;99.90;;;;;;5076565;28;20225;-70
2023/12/13 04:49:25;;;;;;;12.67;3.30;;;10.10;99.90;;;;;;5076514;28;20208;-71
2023/12/13 04:51:50;;;;;;;12.67;3.10;;;10.10;99.90;;;;;;5074961;28;20711;-70
2023/12/13 04:54:16;;;;;;;15.10;3.23;;;10.00;99.90;;;;;;5076639;28;20168;-70
2023/12/13 04:56:43;;;;;;;11.07;3.10;;;10.10;99.90;;;;;;5076023;28;20176;-70
2023/12/13 04:59:08;;;;;;;12.37;2.83;;;10.10;99.90;;;;;;5076167;28;20165;-71
2023/12/13 05:01:34;;;;;;;7.87;2.70;;;10.10;99.90;;;;;;5076052;28;20168;-71
2023/12/13 05:03:59;;;;;;;14.27;2.80;;;10.10;99.90;;;;;;5075648;28;20521;-71
2023/12/13 05:06:25;;;;;;;13.13;2.90;;;10.20;99.90;;;;;;5076290;28;20167;-71
2023/12/13 05:08:51;;;;;;;14.83;3.43;;;10.10;99.90;;;;;;5075336;28;20177;-71
2023/12/13 05:11:16;;;;;;;12.53;3.10;;;10.20;99.90;;;;;;5075818;28;20184;-71
2023/12/13 05:13:42;;;;;;;11.43;3.10;;;10.20;99.90;;;;;;5075713;28;20230;-70
2023/12/13 05:16:08;;;;;;;16.97;3.87;;;10.10;99.90;;;;;;5075589;28;20173;-71
2023/12/13 05:18:34;;;;;;;8.80;2.67;;;10.10;99.90;;;;;;5075889;28;20207;-71
2023/12/13 05:21:01;;;;;;;12.13;3.17;;;10.10;99.90;;;;;;5075379;28;20206;-71
2023/12/13 05:23:27;;;;;;;11.67;3.20;;;10.10;99.90;;;;;;5074110;28;20173;-71
2023/12/13 05:25:53;;;;;;;10.47;3.03;;;10.00;99.90;;;;;;5075820;28;20625;-71
2023/12/13 05:28:18;;;;;;;15.37;3.20;;;10.00;99.90;;;;;;5075573;28;20221;-71
2023/12/13 05:30:44;;;;;;;11.10;2.90;;;9.90;99.90;;;;;;5075475;28;20250;-72
2023/12/13 05:33:09;;;;;;;10.30;3.30;;;9.90;99.90;;;;;;5075300;28;20198;-71
2023/12/13 05:35:35;;;;;;;13.37;3.20;;;9.80;99.90;;;;;;5075009;28;20211;-72
2023/12/13 05:38:01;;;;;;;10.60;2.83;;;9.90;99.90;;;;;;5075029;28;20184;-71
2023/12/13 05:40:26;;;;;;;12.53;3.67;;;9.90;99.90;;;;;;5075532;28;20185;-71
2023/12/13 05:42:54;;;;;;;14.80;3.27;;;10.00;99.90;;;;;;5075133;28;20262;-71
2023/12/13 05:45:20;;;;;;;14.20;3.40;;;9.90;99.90;;;;;;5074632;28;20177;-71
2023/12/13 05:47:45;;;;;;;13.23;3.43;;;9.80;99.90;;;;;;5074853;28;20256;-70
2023/12/13 05:50:11;;;;;;;13.23;3.60;;;10.00;99.90;;;;;;5075014;28;20295;-71
2023/12/13 05:52:38;;;;;;;10.83;3.57;;;10.00;99.90;;;;;;5073851;28;20176;-71
2023/12/13 05:55:05;;;;;;;12.10;3.00;;;10.00;99.90;;;;;;5073575;28;20172;-71
2023/12/13 05:57:31;;;;;;;10.70;3.07;;;9.90;99.90;;;;;;5074514;28;20723;-71
2023/12/13 05:59:57;;;;;;;14.50;3.40;;;9.90;99.90;;;;;;5074386;28;20212;-71
2023/12/13 06:02:22;;;;;;;13.57;3.40;;;9.90;99.90;;;;;;5074694;28;20226;-71
2023/12/13 06:04:48;;;;;;;10.93;2.83;;;9.80;99.90;;;;;;5074437;28;20165;-71
2023/12/13 06:07:13;;;;;;;9.33;2.57;;;9.80;99.90;;;;;;5073919;28;20176;-72
2023/12/13 06:09:41;;;;;;;10.40;2.90;;;9.90;99.90;;;;;;5074137;28;20725;-71
2023/12/13 06:12:08;;;;;;;14.90;3.10;;;9.80;99.90;;;;;;5074661;28;20172;-71
2023/12/13 06:14:33;;;;;;;16.37;3.53;;;9.90;99.90;;;;;;5074526;28;20175;-70
2023/12/13 06:16:59;;;;;;;14.77;3.97;;;9.90;99.90;;;;;;5073833;28;20518;-71
2023/12/13 06:19:27;;;;;;;15.60;3.40;;;9.90;99.90;;;;;;5074152;28;20168;-71
2023/12/13 06:21:53;;;;;;;14.87;3.70;;;9.90;99.90;;;;;;5072296;28;20192;-71
2023/12/13 06:24:18;;;;;;;13.57;3.70;;;9.90;99.90;;;;;;5073875;28;20172;-72
2023/12/13 06:26:44;;;;;;;13.83;4.17;;;9.80;99.90;;;;;;5073561;28;20221;-71
2023/12/13 06:29:11;;;;;;;12.70;3.50;;;9.80;99.90;;;;;;5074085;28;20695;-71
2023/12/13 06:31:40;;;;;;;15.03;3.77;;;9.80;99.90;;;;;;5074419;28;20188;-72
2023/12/13 06:34:05;;;;;;;11.20;3.67;;;9.80;99.90;;;;;;5073292;28;20164;-72
2023/12/13 06:36:31;;;;;;;15.50;3.63;;;9.80;99.90;;;;;;5072983;28;20636;-72
2023/12/13 06:38:56;;;;;;;9.37;3.47;;;9.90;99.90;;;;;;5073990;28;20176;-72
2023/12/13 06:41:22;;;;;;;18.37;3.97;;;9.80;99.90;;;;;;5073534;28;20173;-72
2023/12/13 06:43:48;;;;;;;8.80;3.90;;;9.90;99.90;;;;;;5074356;28;20244;-72
2023/12/13 06:46:13;;;;;;;13.60;3.60;;;9.90;99.90;;;;;;5073430;28;20169;-72
2023/12/13 06:48:39;;;;;;;16.80;3.57;;;10.00;99.90;;;;;;5074147;28;20176;-72
2023/12/13 06:51:06;;;;;;;17.90;3.83;;;9.90;99.90;;;;;;5072608;28;20204;-71
2023/12/13 06:53:34;;;;;;;8.17;3.30;;;9.90;99.90;;;;;;5072487;28;20632;-72
2023/12/13 06:56:00;;;;;;;11.90;2.90;;;9.90;99.90;;;;;;5072671;28;20699;-72
2023/12/13 06:58:26;;;;;;;10.70;3.80;;;10.00;99.90;;;;;;5072645;28;20201;-71
2023/12/13 07:00:51;;;;;;;16.00;3.80;;;9.90;99.90;;;;;;5073493;28;20252;-72
2023/12/13 07:03:17;;;;;;;12.47;3.67;;;9.80;99.90;;;;;;5072433;28;20209;-72
2023/12/13 07:05:42;;;;;;;14.13;3.70;;;9.90;99.90;;;;;;5071405;28;20176;-71
2023/12/13 07:08:08;;;;;;;18.27;3.50;;;9.90;99.90;;;;;;5072510;28;20624;-71
2023/12/13 07:10:33;;;;;;;17.20;3.80;;;9.80;99.90;;;;;;5071186;28;20208;-73
2023/12/13 07:12:59;;;;;;;14.63;3.33;;;9.80;99.90;;;;;;5072723;28;20165;-73
2023/12/13 07:15:24;;;;;;;13.30;3.20;;;9.90;99.90;;;;;;5073123;28;20172;-71
2023/12/13 07:17:50;;;;;;;16.20;3.80;;;9.90;99.90;;;;;;5072866;28;20251;-72
2023/12/13 07:20:17;;;;;;;13.53;3.50;;;9.80;99.90;;;;;;5071974;28;20196;-71
2023/12/13 07:22:43;;;;;;;14.50;3.37;;;9.80;99.90;;;;;;5072566;28;20604;-71
2023/12/13 07:25:09;;;;;;;11.73;3.40;;;9.80;99.90;;;;;;5071608;28;20180;-70
2023/12/13 07:28:00;;;;;;;20.33;4.20;;;9.80;99.90;;;;;;5172197;27;20504;-72
2023/12/13 07:30:25;;;;;;;10.80;3.60;;;9.90;99.90;;;;;;5150770;27;20225;-72
2023/12/13 07:32:53;;;;;;;7.60;3.10;;;9.70;99.90;;;;;;5150602;27;20240;-72
2023/12/13 07:35:18;;;;;;;15.37;3.43;;;9.70;99.90;;;;;;5131929;27;20604;-71
2023/12/13 07:37:45;;;;;;;11.00;3.70;;;9.70;99.90;;;;;;5151200;27;20269;-73
2023/12/13 07:40:11;;;;;;;15.80;4.10;;;9.80;99.90;;;;;;5150229;27;20170;-71
2023/12/13 07:42:36;;;;;;;18.83;3.97;;;9.80;99.90;;;;;;5151088;27;20663;-72
2023/12/13 07:45:02;;;;;;;10.57;3.13;;;9.80;99.90;;;;;;5150205;27;20195;-72
2023/12/13 07:47:28;;;;;;;15.93;3.87;;;9.80;99.90;;;;;;5150096;27;20209;-71
2023/12/13 07:49:53;;;;;;;8.93;3.20;;;9.90;99.90;;;;;;5149293;27;20503;-72
2023/12/13 07:52:19;;;;;;;12.10;3.40;;;9.80;99.90;;;;;;5149966;27;20180;-71
2023/12/13 07:54:44;;;;;;;12.47;3.40;;;9.80;99.90;;;;;;5150882;27;20190;-72
2023/12/13 07:57:10;;;;;;;16.87;4.30;;;9.80;99.90;;;;;;5150586;27;20212;-71
2023/12/13 07:59:36;;;;;;;16.07;3.73;;;9.80;99.90;;;;;;5150266;27;20170;-71
2023/12/13 08:02:01;;;;;;;12.97;3.73;;;9.80;99.90;;;;;;5150259;27;20696;-72
2023/12/13 08:04:27;;;;;;;17.47;3.67;;;9.90;99.90;;;;;;5149230;27;20154;-72
2023/12/13 08:06:53;;;;;;;15.27;3.43;;;9.90;99.90;;;;;;5150460;27;20205;-70
2023/12/13 08:09:19;;;;;;;10.73;3.77;;;9.90;99.90;;;;;;5149630;27;20181;-70
2023/12/13 08:11:48;;;;;;;11.53;3.50;;;9.90;99.90;;;;;;5127949;27;20178;-72
2023/12/13 08:14:14;;;;;;;16.70;3.50;;;9.90;99.90;;;;;;5133429;27;20697;-69
2023/12/13 08:16:40;;;;;;;15.50;3.63;;;9.90;99.90;;;;;;5131063;27;20229;-70
2023/12/13 08:19:06;;;;;;;17.47;3.70;;;9.90;99.90;;;;;;5128895;27;20179;-70
2023/12/13 08:21:31;;;;;;;10.77;3.70;;;10.00;99.90;;;;;;5123417;27;20283;-72
2023/12/13 08:23:57;;;;;;;14.63;3.73;;;9.90;99.90;;;;;;5124354;28;20175;-70
2023/12/13 08:26:26;;;;;;;14.60;3.77;;;9.90;99.90;;;;;;5124439;27;20308;-73
2023/12/13 08:28:52;;;;;;;16.33;3.73;;;9.90;99.90;;;;;;5112518;28;20175;-72
2023/12/13 08:31:18;;;;;;;8.17;3.20;;;9.80;99.90;;;;;;5123350;27;20178;-72
2023/12/13 08:33:44;;;;;;;13.03;3.40;;;9.80;99.90;;;;;;5128392;27;20223;-70
2023/12/13 08:36:13;;;;;;;14.07;3.90;;;9.70;99.90;;;;;;5127325;28;20178;-71
2023/12/13 08:38:40;;;;;;;12.63;3.27;;;9.80;99.90;;;;;;5116214;28;20236;-72
2023/12/13 08:41:11;;;;;;;16.07;3.90;;;9.80;99.90;;;;;;5113339;28;20183;-71
2023/12/13 08:43:38;;;;;;;13.77;3.83;;;9.90;99.90;;;;;;5101510;28;20180;-71
2023/12/13 08:46:04;;;;;;;11.10;3.63;;;9.90;99.90;;;;;;5100181;28;20211;-70
2023/12/13 08:48:30;;;;;;;8.77;3.43;;;10.00;99.90;;;;;;5104117;28;20587;-71
2023/12/13 08:50:56;;;;;;;15.97;3.83;;;10.00;99.90;;;;;;5106957;28;20175;-70
2023/12/13 08:53:22;;;;;;;17.00;3.77;;;10.10;99.90;;;;;;5111856;28;20219;-70
2023/12/13 08:55:50;;;;;;;11.83;4.07;;;10.00;99.90;;;;;;5108428;28;20656;-71
2023/12/13 08:58:16;;;;;;;11.33;3.57;;;10.00;99.90;;;;;;5112418;28;20270;-72
2023/12/13 09:00:42;;;;;;;10.93;3.60;;;10.00;99.90;;;;;;5095199;28;20600;-70
2023/12/13 09:03:08;;;;;;;13.00;3.60;;;10.10;99.90;;;;;;5106966;28;20639;-70
2023/12/13 09:05:34;;;;;;;10.67;3.57;;;10.00;99.90;;;;;;5109361;28;20183;-71
2023/12/13 09:08:00;;;;;;;8.67;3.60;;;10.10;99.90;;;;;;5104270;28;20183;-71
2023/12/13 09:10:25;;;;;;;11.03;4.00;;;10.00;99.90;;;;;;5096757;28;20652;-70
2023/12/13 09:12:51;;;;;;;8.70;3.67;;;10.00;99.90;;;;;;5094551;28;20679;-72
2023/12/13 09:15:18;;;;;;;19.53;4.33;;;9.90;99.90;;;;;;5094429;28;20168;-71
2023/12/13 09:17:45;;;;;;;13.10;4.10;;;9.90;99.90;;;;;;5109207;28;20266;-71
2023/12/13 09:20:14;;;;;;;12.33;4.13;;;9.90;99.90;;;;;;5085407;28;20209;-71
2023/12/13 09:22:41;;;;;;;11.90;4.13;;;9.80;99.90;;;;;;5114929;28;20179;-71
2023/12/13 09:25:07;;;;;;;9.73;4.00;;;9.90;99.90;;;;;;5110724;28;20175;-72
2023/12/13 09:27:33;;;;;;;15.90;4.57;;;9.90;99.90;;;;;;5111099;28;20235;-72
2023/12/13 09:29:59;;;;;;;11.30;4.17;;;9.90;99.90;;;;;;5100143;28;20182;-70
2023/12/13 09:32:24;;;;;;;8.87;3.57;;;9.90;99.90;;;;;;5111580;28;20183;-72
2023/12/13 09:34:51;;;;;;;16.10;4.63;;;10.00;99.90;;;;;;5107420;28;20476;-72
2023/12/13 09:37:16;;;;;;;16.07;4.47;;;10.00;99.90;;;;;;5103239;28;20179;-73
2023/12/13 09:39:42;;;;;;;16.10;4.63;;;10.00;99.90;;;;;;5112074;28;20190;-71
2023/12/13 09:42:08;;;;;;;10.67;3.90;;;10.00;99.90;;;;;;5101588;28;20184;-71
2023/12/13 09:44:38;;;;;;;12.17;4.37;;;10.00;99.90;;;;;;5103469;28;20311;-71
2023/12/13 09:47:06;;;;;;;12.57;4.80;;;10.00;99.90;;;;;;5101827;28;20242;-71
2023/12/13 09:49:36;;;;;;;13.23;4.33;;;10.10;99.90;;;;;;5108909;28;20179;-71
2023/12/13 09:52:07;;;;;;;12.63;4.37;;;10.20;99.90;;;;;;5113684;28;20183;-70
2023/12/13 09:54:35;;;;;;;10.43;4.03;;;10.30;99.90;;;;;;5094259;28;20179;-71
2023/12/13 09:57:03;;;;;;;9.27;4.13;;;10.30;99.90;;;;;;5113765;28;20621;-70
2023/12/13 09:59:29;;;;;;;13.67;4.43;;;10.50;99.90;;;;;;5110927;28;20191;-70
2023/12/13 10:01:56;;;;;;;11.63;4.03;;;10.50;99.90;;;;;;5107316;28;20197;-73
2023/12/13 10:04:29;;;;;;;8.30;3.97;;;10.60;99.90;;;;;;5098512;28;20603;-70
2023/12/13 10:06:56;;;;;;;11.10;3.90;;;10.50;99.90;;;;;;5099896;28;20279;-71
2023/12/13 10:09:28;;;;;;;12.83;4.23;;;10.60;99.90;;;;;;5099461;28;20675;-70
2023/12/13 10:11:58;;;;;;;11.10;4.67;;;10.60;99.90;;;;;;5109966;28;20210;-71
2023/12/13 10:14:24;;;;;;;9.30;3.87;;;10.70;99.90;;;;;;5093575;28;20203;-73
2023/12/13 10:16:50;;;;;;;10.57;4.00;;;10.70;99.90;;;;;;5107082;28;20658;-73
2023/12/13 10:19:16;;;;;;;14.57;4.40;;;10.80;99.90;;;;;;5109768;28;20366;-72
2023/12/13 10:21:42;;;;;;;13.53;4.27;;;10.80;99.90;;;;;;5109259;27;20193;-71
2023/12/13 10:24:07;;;;;;;12.43;4.47;;;10.90;99.90;;;;;;5100869;28;20670;-73
2023/12/13 10:26:36;;;;;;;8.97;4.07;;;10.90;99.90;;;;;;5095771;28;20250;-71
2023/12/13 10:29:03;;;;;;;9.83;4.17;;;10.90;99.90;;;;;;5110541;28;20190;-72
2023/12/13 10:31:30;;;;;;;14.07;4.23;;;10.90;99.90;;;;;;5084762;28;20594;-71
2023/12/13 10:33:56;;;;;;;9.47;3.93;;;11.10;99.90;;;;;;5109041;28;20193;-71
2023/12/13 10:36:28;;;;;;;10.83;4.07;;;11.10;99.90;;;;;;5110115;28;20261;-71
2023/12/13 10:38:55;;;;;;;7.47;3.67;;;11.10;99.90;;;;;;5106170;28;20238;-72
2023/12/13 10:41:27;;;;;;;10.07;4.00;;;10.80;99.90;;;;;;5110188;28;20194;-72
2023/12/13 10:43:57;;;;;;;12.03;3.67;;;10.90;99.90;;;;;;5106459;28;20179;-71
2023/12/13 10:46:27;;;;;;;10.83;4.53;;;10.80;99.90;;;;;;5102046;28;20211;-70
2023/12/13 10:48:54;;;;;;;8.40;3.90;;;10.70;99.90;;;;;;5101643;28;20218;-70
2023/12/13 10:51:24;;;;;;;12.50;4.30;;;10.70;99.90;;;;;;5101257;28;20175;-71
2023/12/13 10:53:51;;;;;;;11.27;4.60;;;10.60;99.90;;;;;;5109087;28;20228;-72
2023/12/13 10:56:18;;;;;;;10.10;4.13;;;10.80;99.90;;;;;;5109605;28;20183;-71
2023/12/13 10:58:46;;;;;;;14.03;4.20;;;10.90;99.90;;;;;;5086310;28;20194;-72
2023/12/13 11:01:12;;;;;;;7.60;3.83;;;10.90;99.90;;;;;;5110183;28;20719;-71
2023/12/13 11:03:41;;;;;;;8.20;3.70;;;11.00;99.90;;;;;;5103903;28;20185;-71
2023/12/13 11:06:11;;;;;;;10.83;4.43;;;11.10;99.90;;;;;;5111609;28;20207;-72
2023/12/13 11:08:38;;;;;;;10.37;4.20;;;11.30;99.90;;;;;;5112581;28;20259;-71
2023/12/13 11:11:13;;;;;;;13.47;5.00;;;11.30;99.90;;;;;;5110518;28;20258;-72
2023/12/13 11:13:49;;;;;;;8.73;4.63;;;11.30;99.90;;;;;;5112292;28;20515;-72
2023/12/13 11:16:21;;;;;;;13.27;4.53;;;11.20;99.90;;;;;;5111291;28;20198;-72
2023/12/13 11:18:49;;;;;;;12.30;5.07;;;11.10;99.90;;;;;;5102097;28;20449;-70
2023/12/13 11:21:30;;;;;;;17.73;5.10;;;11.20;99.90;;;;;;5106517;27;20195;-70
2023/12/13 11:23:58;;;;;;;9.90;4.67;;;11.00;99.90;;;;;;5099526;28;20586;-72
2023/12/13 11:26:27;;;;;;;13.20;4.97;;;10.90;99.90;;;;;;5109564;28;20685;-73
2023/12/13 11:28:54;;;;;;;9.03;4.70;;;10.90;99.90;;;;;;5092086;28;20168;-70
2023/12/13 11:31:24;;;;;;;11.80;5.47;;;10.80;99.90;;;;;;5109975;28;20171;-72
2023/12/13 11:33:53;;;;;;;22.17;10.13;;;10.90;99.90;;;;;;5111832;28;20175;-72
2023/12/13 11:36:24;;;;;;;9.27;4.90;;;11.00;99.90;;;;;;5099300;28;20202;-72
2023/12/13 11:38:55;;;;;;;25.33;17.73;;;11.00;99.90;;;;;;5092278;28;20176;-72
2023/12/13 11:41:21;;;;;;;12.70;5.90;;;11.00;99.90;;;;;;5092245;28;20683;-72
2023/12/13 11:43:47;;;;;;;10.57;6.13;;;10.90;99.90;;;;;;5092268;28;20163;-73
2023/12/13 11:46:13;;;;;;;7.90;4.90;;;11.00;99.90;;;;;;5092159;28;20204;-74
2023/12/13 11:48:39;;;;;;;11.17;4.90;;;10.80;99.90;;;;;;5091995;28;20654;-72
2023/12/13 11:51:05;;;;;;;11.87;5.40;;;10.90;99.90;;;;;;5092100;28;20177;-72
2023/12/13 11:53:32;;;;;;;10.80;6.20;;;11.00;99.90;;;;;;5091890;28;20184;-74
2023/12/13 11:55:58;;;;;;;23.73;19.83;;;11.10;99.90;;;;;;5091301;28;20168;-71
2023/12/13 11:58:27;;;;;;;14.77;8.33;;;11.20;99.90;;;;;;5092060;28;20210;-72
2023/12/13 12:00:53;;;;;;;10.53;5.40;;;11.20;99.90;;;;;;5100023;28;20183;-73
2023/12/13 12:03:19;;;;;;;13.83;9.10;;;11.20;99.90;;;;;;5116839;28;20618;-72
2023/12/13 12:05:44;;;;;;;8.33;5.27;;;11.20;99.90;;;;;;5103790;28;20716;-72
2023/12/13 12:08:11;;;;;;;12.50;5.80;;;11.40;99.90;;;;;;5108639;28;20729;-71
2023/12/13 12:10:37;;;;;;;13.90;5.87;;;11.40;99.90;;;;;;5109465;28;20508;-72
2023/12/13 12:13:03;;;;;;;8.93;5.63;;;11.40;99.90;;;;;;5109011;28;20190;-72
2023/12/13 12:15:31;;;;;;;7.30;5.50;;;11.40;99.90;;;;;;5109104;28;20851;-72
2023/12/13 12:17:57;;;;;;;9.90;5.80;;;11.30;99.90;;;;;;5112252;28;20183;-72
2023/12/13 12:20:27;;;;;;;11.73;6.50;;;11.30;99.90;;;;;;5080889;28;20835;-74
2023/12/13 12:22:53;;;;;;;11.17;5.80;;;11.30;99.90;;;;;;5112123;28;20250;-72
2023/12/13 12:25:20;;;;;;;11.03;5.77;;;11.30;99.90;;;;;;5087683;28;20325;-72
2023/12/13 12:27:50;;;;;;;8.27;5.77;;;11.50;99.90;;;;;;5101559;28;20227;-73
2023/12/13 12:30:17;;;;;;;10.23;5.77;;;11.70;99.90;;;;;;5108212;28;20175;-72
2023/12/13 12:32:44;;;;;;;9.27;6.00;;;11.70;99.90;;;;;;5101269;27;20184;-72
2023/12/13 12:35:10;;;;;;;7.13;5.43;;;11.80;99.90;;;;;;5106123;28;20195;-73
2023/12/13 12:37:35;;;;;;;12.00;6.20;;;11.90;99.90;;;;;;5098768;28;20621;-72